createdAt,value
2018-06-02T00:02:03.355Z,15.82
2018-06-02T00:04:32.425Z,15.78
2018-06-02T00:07:01.482Z,15.74
2018-06-02T00:09:30.527Z,15.70
2018-06-02T00:11:59.569Z,15.73
2018-06-02T00:14:28.623Z,15.82
2018-06-02T00:16:57.657Z,15.80
2018-06-02T00:19:26.705Z,15.67
2018-06-02T00:24:31.963Z,15.59
2018-06-02T00:29:36.835Z,15.67
2018-06-02T00:32:05.877Z,15.63
2018-06-02T00:34:34.966Z,15.44
2018-06-02T00:37:04.018Z,15.44
2018-06-02T00:39:33.076Z,15.47
2018-06-02T00:42:02.131Z,15.36
2018-06-02T00:44:31.182Z,15.19
2018-06-02T00:47:00.222Z,15.03
2018-06-02T00:49:38.825Z,15.07
2018-06-02T00:52:20.625Z,15.17
2018-06-02T00:57:30.053Z,15.28
2018-06-02T01:00:13.274Z,15.26
2018-06-02T01:02:55.364Z,15.09
2018-06-02T01:08:17.151Z,15.12
2018-06-02T01:11:02.657Z,14.96
2018-06-02T01:13:46.593Z,14.82
2018-06-02T01:16:30.072Z,14.80
2018-06-02T01:19:13.965Z,14.79
2018-06-02T01:21:56.232Z,14.90
2018-06-02T01:24:39.858Z,14.90
2018-06-02T01:30:03.154Z,15.04
2018-06-02T01:32:45.189Z,15.07
2018-06-02T01:35:27.243Z,15.18
2018-06-02T01:37:56.901Z,15.02
2018-06-02T01:43:01.674Z,15.07
2018-06-02T01:45:30.714Z,15.04
2018-06-02T01:47:59.758Z,14.99
2018-06-02T01:50:28.795Z,15.10
2018-06-02T01:52:57.844Z,14.99
2018-06-02T01:58:02.609Z,15.00
2018-06-02T02:00:31.685Z,14.92
2018-06-02T02:03:00.736Z,14.90
2018-06-02T02:08:05.607Z,14.90
2018-06-02T02:16:45.111Z,14.64
2018-06-02T02:19:14.162Z,14.44
2018-06-02T02:21:43.216Z,14.39
2018-06-02T02:24:12.278Z,14.61
2018-06-02T02:26:41.343Z,14.72
2018-06-02T02:29:10.394Z,14.64
2018-06-02T02:31:39.443Z,14.57
2018-06-02T02:34:08.485Z,14.57
2018-06-02T02:36:37.577Z,14.53
2018-06-02T02:39:06.619Z,14.70
2018-06-02T02:41:35.691Z,14.62
2018-06-02T02:44:04.752Z,14.62
2018-06-02T02:46:33.812Z,14.57
2018-06-02T02:49:02.874Z,14.56
2018-06-02T02:51:31.947Z,14.54
2018-06-02T02:54:01.002Z,14.51
2018-06-02T02:56:30.037Z,14.51
2018-06-02T02:58:59.089Z,14.57
2018-06-02T03:01:28.136Z,14.67
2018-06-02T03:03:57.233Z,14.77
2018-06-02T03:06:26.285Z,14.76
2018-06-02T03:08:55.334Z,14.77
2018-06-02T03:11:24.382Z,14.58
2018-06-02T03:13:53.534Z,14.54
2018-06-02T03:16:22.593Z,14.46
2018-06-02T03:18:51.657Z,14.56
2018-06-02T03:21:20.726Z,14.48
2018-06-02T03:23:49.787Z,14.38
2018-06-02T03:26:18.813Z,14.41
2018-06-02T03:28:47.872Z,14.48
2018-06-02T03:31:16.929Z,14.47
2018-06-02T03:33:45.984Z,14.45
2018-06-02T03:36:15.045Z,14.44
2018-06-02T03:38:44.090Z,14.48
2018-06-02T03:43:48.868Z,14.72
2018-06-02T03:46:17.918Z,14.66
2018-06-02T03:48:47.383Z,14.64
2018-06-02T03:51:16.505Z,14.48
2018-06-02T03:53:45.801Z,14.44
2018-06-02T03:56:14.857Z,14.43
2018-06-02T03:58:43.915Z,14.43
2018-06-02T04:03:48.696Z,14.60
2018-06-02T04:06:19.342Z,14.71
2018-06-02T04:08:48.404Z,14.59
2018-06-02T04:11:17.686Z,14.66
2018-06-02T04:13:46.970Z,14.73
2018-06-02T04:16:16.058Z,14.93
2018-06-02T04:18:46.851Z,15.09
2018-06-02T04:21:15.881Z,15.14
2018-06-02T04:23:46.165Z,15.18
2018-06-02T04:28:51.974Z,15.75
2018-06-02T04:31:21.043Z,15.83
2018-06-02T04:36:25.843Z,16.10
2018-06-02T04:38:55.025Z,16.02
2018-06-02T04:41:24.074Z,16.11
2018-06-02T04:43:53.123Z,16.24
2018-06-02T04:46:23.108Z,16.33
2018-06-02T04:48:52.128Z,16.46
2018-06-02T04:51:21.179Z,16.58
2018-06-02T04:53:50.221Z,16.68
2018-06-02T04:56:19.273Z,16.78
2018-06-02T04:58:49.102Z,16.87
2018-06-02T05:01:18.125Z,16.94
2018-06-02T05:03:48.950Z,16.98
2018-06-02T05:06:18.044Z,16.98
2018-06-02T05:08:47.549Z,16.98
2018-06-02T05:11:16.582Z,17.02
2018-06-02T05:13:46.524Z,16.74
2018-06-02T05:16:15.963Z,16.70
2018-06-02T05:18:45.898Z,16.81
2018-06-02T05:21:16.181Z,17.03
2018-06-02T05:23:46.433Z,17.07
2018-06-02T05:26:15.449Z,17.25
2018-06-02T05:28:46.061Z,17.38
2018-06-02T05:31:15.125Z,17.48
2018-06-02T05:33:46.426Z,17.65
2018-06-02T05:36:15.487Z,17.78
2018-06-02T05:38:47.308Z,17.86
2018-06-02T05:43:52.177Z,17.98
2018-06-02T05:46:21.271Z,18.00
2018-06-02T05:48:50.327Z,17.97
2018-06-02T05:51:19.623Z,18.05
2018-06-02T05:53:48.666Z,18.16
2018-06-02T05:56:17.739Z,18.14
2018-06-02T05:58:46.831Z,18.03
2018-06-02T06:01:15.877Z,18.24
2018-06-02T06:03:46.106Z,18.22
2018-06-02T06:06:15.197Z,18.44
2018-06-02T06:08:46.000Z,18.58
2018-06-02T06:11:16.132Z,18.68
2018-06-02T06:13:47.258Z,18.80
2018-06-02T06:16:16.401Z,18.88
2018-06-02T06:18:46.729Z,19.16
2018-06-02T06:21:15.801Z,19.17
2018-06-02T06:26:20.617Z,19.34
2018-06-02T06:28:50.464Z,19.53
2018-06-02T06:31:19.486Z,19.69
2018-06-02T06:33:48.808Z,19.77
2018-06-02T06:41:29.510Z,21.09
2018-06-02T06:46:34.610Z,21.29
2018-06-02T06:49:03.637Z,21.61
2018-06-02T06:51:32.778Z,21.87
2018-06-02T06:54:01.854Z,21.99
2018-06-02T06:56:31.074Z,22.34
2018-06-02T06:59:00.136Z,22.45
2018-06-02T07:01:29.900Z,22.16
2018-06-02T07:04:03.249Z,22.45
2018-06-02T07:06:33.163Z,22.96
2018-06-02T07:09:02.236Z,23.46
2018-06-02T07:11:33.412Z,23.44
2018-06-02T07:14:02.718Z,23.62
2018-06-02T07:16:32.585Z,23.07
2018-06-02T07:19:01.636Z,23.13
2018-06-02T07:21:31.188Z,23.27
2018-06-02T07:26:36.035Z,23.79
2018-06-02T07:29:07.538Z,23.92
2018-06-02T07:31:36.573Z,23.52
2018-06-02T07:34:05.902Z,22.85
2018-06-02T07:36:34.974Z,21.98
2018-06-02T07:39:05.158Z,22.13
2018-06-02T07:41:34.201Z,22.12
2018-06-02T07:44:03.258Z,22.15
2018-06-02T07:46:32.801Z,22.39
2018-06-02T07:49:01.834Z,22.35
2018-06-02T07:51:31.522Z,22.29
2018-06-02T07:54:00.561Z,22.12
2018-06-02T07:56:29.682Z,22.30
2018-06-02T07:58:58.727Z,22.59
2018-06-02T08:01:27.771Z,23.29
2018-06-02T08:06:32.702Z,23.83
2018-06-02T08:09:02.402Z,23.56
2018-06-02T08:11:31.426Z,22.98
2018-06-02T08:14:01.493Z,22.55
2018-06-02T08:16:30.534Z,22.38
2018-06-02T08:19:00.090Z,22.27
2018-06-02T08:21:29.125Z,22.41
2018-06-02T08:23:58.829Z,21.81
2018-06-02T08:26:27.878Z,21.78
2018-06-02T08:31:32.893Z,23.23
2018-06-02T08:34:01.942Z,23.86
2018-06-02T08:36:31.376Z,24.50
2018-06-02T08:41:36.681Z,26.61
2018-06-02T08:44:05.745Z,26.58
2018-06-02T08:46:35.018Z,26.32
2018-06-02T08:49:04.094Z,25.53
2018-06-02T08:51:33.133Z,25.71
2018-06-02T08:54:02.174Z,25.89
2018-06-02T08:56:32.743Z,26.17
2018-06-02T08:59:01.786Z,26.10
2018-06-02T09:01:31.614Z,26.44
2018-06-02T09:04:00.662Z,27.29
2018-06-02T09:06:29.739Z,26.53
2018-06-02T09:08:59.558Z,25.99
2018-06-02T09:11:28.616Z,26.02
2018-06-02T09:13:57.683Z,25.27
2018-06-02T09:16:26.732Z,24.63
2018-06-02T09:18:55.838Z,24.28
2018-06-02T09:21:25.120Z,24.12
2018-06-02T09:23:54.598Z,24.48
2018-06-02T09:26:23.645Z,26.43
2018-06-02T09:28:53.435Z,27.67
2018-06-02T09:31:22.466Z,28.93
2018-06-02T09:36:27.974Z,32.64
2018-06-02T09:38:57.022Z,32.65
2018-06-02T09:41:26.809Z,32.04
2018-06-02T09:46:31.568Z,32.51
2018-06-02T09:49:00.607Z,31.56
2018-06-02T09:51:29.650Z,30.75
2018-06-02T09:53:58.905Z,30.53
2018-06-02T09:56:27.976Z,29.81
2018-06-02T10:01:33.222Z,31.07
2018-06-02T10:04:02.270Z,31.19
2018-06-02T10:06:31.341Z,29.36
2018-06-02T10:09:00.482Z,29.15
2018-06-02T10:11:29.956Z,28.25
2018-06-02T10:13:58.997Z,27.95
2018-06-02T10:16:28.743Z,27.58
2018-06-02T10:21:33.498Z,28.00
2018-06-02T10:24:02.729Z,28.10
2018-06-02T10:26:31.786Z,27.94
2018-06-02T10:29:01.049Z,28.10
2018-06-02T10:31:30.081Z,28.53
2018-06-02T10:34:00.074Z,28.86
2018-06-02T10:36:29.134Z,28.76
2018-06-02T10:38:58.595Z,29.23
2018-06-02T10:41:27.663Z,29.17
2018-06-02T10:46:32.489Z,27.03
2018-06-02T10:51:38.202Z,27.16
2018-06-02T10:54:07.247Z,28.44
2018-06-02T10:56:37.135Z,28.92
2018-06-02T10:59:06.323Z,29.64
2018-06-02T11:01:35.751Z,30.47
2018-06-02T11:04:04.761Z,31.42
2018-06-02T11:06:34.122Z,31.89
2018-06-02T11:09:06.292Z,30.97
2018-06-02T11:11:35.493Z,29.70
2018-06-02T11:14:04.543Z,28.63
2018-06-02T11:16:33.590Z,28.23
2018-06-02T11:19:02.644Z,29.08
2018-06-02T11:21:31.682Z,30.23
2018-06-02T11:24:00.732Z,30.64
2018-06-02T11:26:29.788Z,30.57
2018-06-02T11:28:59.509Z,30.49
2018-06-02T11:31:28.537Z,30.79
2018-06-02T11:33:58.629Z,31.32
2018-06-02T11:36:27.665Z,32.00
2018-06-02T11:38:56.999Z,32.82
2018-06-02T11:41:26.522Z,32.37
2018-06-02T11:43:55.563Z,30.73
2018-06-02T11:46:24.612Z,29.03
2018-06-02T11:48:53.674Z,27.55
2018-06-02T11:51:22.714Z,28.37
2018-06-02T11:53:51.796Z,29.25
2018-06-02T11:56:20.845Z,31.32
2018-06-02T11:58:56.762Z,33.49
2018-06-02T12:01:34.637Z,35.55
2018-06-02T12:06:52.184Z,39.53
2018-06-02T12:09:29.784Z,37.17
2018-06-02T12:12:08.620Z,33.07
2018-06-02T12:17:24.341Z,33.42
2018-06-02T12:19:53.884Z,31.89
2018-06-02T12:22:24.128Z,30.78
2018-06-02T12:24:53.154Z,31.24
2018-06-02T12:27:22.757Z,33.29
2018-06-02T12:29:51.848Z,36.28
2018-06-02T12:32:21.415Z,37.30
2018-06-02T12:34:50.498Z,36.12
2018-06-02T12:37:20.212Z,35.18
2018-06-02T12:39:49.271Z,35.69
2018-06-02T12:42:18.861Z,36.83
2018-06-02T12:44:47.884Z,38.82
2018-06-02T12:47:17.233Z,39.61
2018-06-02T12:49:46.311Z,38.60
2018-06-02T12:52:15.494Z,38.95
2018-06-02T12:54:44.572Z,40.59
2018-06-02T12:57:13.640Z,41.80
2018-06-02T12:59:42.672Z,41.66
2018-06-02T13:02:11.734Z,42.13
2018-06-02T13:04:40.785Z,41.82
2018-06-02T13:07:09.833Z,41.93
2018-06-02T13:09:39.241Z,42.54
2018-06-02T13:14:44.214Z,42.19
2018-06-02T13:17:14.101Z,40.73
2018-06-02T13:19:43.156Z,42.14
2018-06-02T13:22:12.769Z,40.69
2018-06-02T13:24:41.816Z,40.89
2018-06-02T13:27:11.462Z,41.12
2018-06-02T13:29:40.537Z,42.10
2018-06-02T13:32:09.569Z,41.66
2018-06-02T13:34:38.629Z,42.93
2018-06-02T13:37:07.689Z,42.70
2018-06-02T13:39:36.737Z,43.28
2018-06-02T13:42:05.779Z,40.55
2018-06-02T13:44:35.097Z,38.47
2018-06-02T13:47:04.217Z,40.29
2018-06-02T13:49:33.731Z,41.74
2018-06-02T13:52:02.802Z,42.62
2018-06-02T13:54:35.730Z,41.96
2018-06-02T13:57:08.600Z,41.81
2018-06-02T13:59:41.722Z,38.62
2018-06-02T14:02:14.566Z,39.11
2018-06-02T14:04:47.342Z,39.93
2018-06-02T14:07:20.336Z,41.12
2018-06-02T14:09:53.612Z,41.65
2018-06-02T14:12:25.907Z,41.76
2018-06-02T14:17:34.246Z,42.61
2018-06-02T14:20:07.529Z,43.23
2018-06-02T14:22:40.624Z,42.07
2018-06-02T14:27:53.063Z,45.46
2018-06-02T14:30:26.343Z,44.41
2018-06-02T14:32:59.546Z,43.46
2018-06-02T14:35:32.054Z,40.00
2018-06-02T14:38:05.391Z,40.08
2018-06-02T14:40:38.450Z,41.41
2018-06-02T14:43:10.643Z,42.06
2018-06-02T14:45:43.616Z,41.52
2018-06-02T14:53:30.524Z,43.14
2018-06-02T14:56:02.923Z,43.34
2018-06-02T14:58:35.947Z,43.65
2018-06-02T15:01:09.100Z,42.75
2018-06-02T15:03:41.602Z,41.82
2018-06-02T15:06:14.599Z,41.64
2018-06-02T15:08:47.860Z,41.61
2018-06-02T15:11:20.767Z,42.35
2018-06-02T15:13:56.173Z,41.89
2018-06-02T15:16:27.976Z,40.59
2018-06-02T15:19:00.860Z,41.72
2018-06-02T15:21:36.150Z,41.44
2018-06-02T15:24:09.528Z,42.35
2018-06-02T15:29:18.199Z,43.92
2018-06-02T15:31:50.088Z,41.23
2018-06-02T15:34:22.244Z,40.70
2018-06-02T15:39:31.058Z,37.85
2018-06-02T15:42:03.963Z,37.98
2018-06-02T15:44:36.073Z,38.87
2018-06-02T15:47:08.307Z,40.26
2018-06-02T15:49:41.913Z,41.05
2018-06-02T15:52:14.442Z,41.37
2018-06-02T15:54:47.543Z,41.22
2018-06-02T15:57:19.795Z,41.71
2018-06-02T15:59:53.683Z,41.48
2018-06-02T16:02:27.693Z,41.08
2018-06-02T16:04:59.893Z,40.69
2018-06-02T16:07:31.845Z,40.86
2018-06-02T16:10:04.406Z,41.38
2018-06-02T16:12:35.857Z,41.21
2018-06-02T16:15:08.818Z,41.43
2018-06-02T16:17:41.241Z,41.55
2018-06-02T16:20:13.223Z,41.25
2018-06-02T16:22:45.599Z,41.00
2018-06-02T16:25:18.572Z,40.13
2018-06-02T16:27:50.668Z,35.80
2018-06-02T16:30:22.657Z,33.46
2018-06-02T16:32:54.773Z,33.00
2018-06-02T16:35:27.115Z,32.22
2018-06-02T16:38:00.013Z,31.46
2018-06-02T16:40:31.746Z,30.28
2018-06-02T16:43:03.890Z,29.99
2018-06-02T16:45:37.573Z,29.41
2018-06-02T16:53:25.576Z,28.82
2018-06-02T16:55:58.645Z,28.94
2018-06-02T16:58:31.314Z,28.29
2018-06-02T17:01:05.042Z,28.01
2018-06-02T17:03:37.736Z,27.48
2018-06-02T17:06:10.809Z,27.39
2018-06-02T17:08:43.083Z,27.79
2018-06-02T17:11:15.587Z,27.87
2018-06-02T17:13:47.681Z,27.38
2018-06-02T17:16:20.443Z,26.88
2018-06-02T17:21:29.825Z,26.85
2018-06-02T17:24:03.204Z,27.02
2018-06-02T17:26:35.536Z,26.59
2018-06-02T17:29:08.264Z,26.62
2018-06-02T17:31:40.912Z,26.25
2018-06-02T17:34:14.283Z,26.09
2018-06-02T17:36:47.514Z,25.91
2018-06-02T17:39:20.329Z,25.60
2018-06-02T17:44:29.682Z,25.37
2018-06-02T17:47:02.034Z,25.11
2018-06-02T17:49:34.343Z,25.03
2018-06-02T17:52:06.899Z,25.00
2018-06-02T17:54:39.726Z,24.93
2018-06-02T17:57:13.124Z,24.90
2018-06-02T17:59:46.934Z,24.64
2018-06-02T18:02:21.506Z,24.54
2018-06-02T18:07:30.671Z,24.59
2018-06-02T18:10:03.062Z,24.28
2018-06-02T18:12:32.165Z,24.07
2018-06-02T18:15:02.136Z,23.93
2018-06-02T18:17:31.540Z,23.82
2018-06-02T18:20:00.640Z,23.63
2018-06-02T18:22:29.875Z,23.44
2018-06-02T18:24:59.251Z,23.21
2018-06-02T18:27:28.329Z,23.06
2018-06-02T18:29:57.409Z,22.95
2018-06-02T18:32:26.644Z,23.10
2018-06-02T18:34:55.690Z,23.12
2018-06-02T18:37:24.798Z,22.89
2018-06-02T18:39:54.007Z,22.75
2018-06-02T18:42:23.071Z,22.46
2018-06-02T18:47:27.950Z,22.06
2018-06-02T18:49:57.015Z,21.74
2018-06-02T18:52:26.217Z,21.53
2018-06-02T18:57:31.092Z,21.40
2018-06-02T19:00:00.355Z,21.55
2018-06-02T19:02:29.463Z,21.02
2018-06-02T19:04:59.431Z,20.87
2018-06-02T19:07:28.550Z,20.66
2018-06-02T19:09:58.528Z,20.56
2018-06-02T19:12:27.598Z,20.34
2018-06-02T19:14:56.646Z,20.17
2018-06-02T19:17:25.708Z,20.06
2018-06-02T19:19:54.926Z,19.95
2018-06-02T19:22:24.029Z,19.73
2018-06-02T19:24:53.120Z,19.62
2018-06-02T19:27:22.866Z,19.47
2018-06-02T19:29:51.975Z,19.34
2018-06-02T19:34:56.789Z,19.30
2018-06-02T19:37:25.859Z,19.31
2018-06-02T19:39:54.926Z,19.05
2018-06-02T19:42:24.177Z,18.86
2018-06-02T19:44:53.234Z,18.98
2018-06-02T19:47:22.307Z,18.86
2018-06-02T19:49:51.375Z,18.74
2018-06-02T19:52:22.888Z,18.58
2018-06-02T19:54:52.173Z,18.31
2018-06-02T19:57:21.933Z,18.23
2018-06-02T19:59:51.013Z,18.41
2018-06-02T20:02:23.761Z,18.52
2018-06-02T20:04:54.616Z,18.73
2018-06-02T20:07:25.535Z,18.75
2018-06-02T20:09:56.237Z,19.02
2018-06-02T20:12:27.079Z,18.96
2018-06-02T20:17:36.708Z,19.04
2018-06-02T20:20:08.267Z,18.85
2018-06-02T20:22:41.268Z,18.72
2018-06-02T20:25:13.118Z,18.62
2018-06-02T20:27:45.714Z,18.54
2018-06-02T20:30:18.267Z,18.64
2018-06-02T20:32:52.180Z,18.52
2018-06-02T20:35:23.299Z,18.44
2018-06-02T20:37:54.757Z,18.44
2018-06-02T20:43:03.159Z,18.50
2018-06-02T20:48:13.025Z,18.43
2018-06-02T20:50:45.325Z,18.21
2018-06-02T20:55:53.888Z,18.14
2018-06-02T20:58:26.653Z,17.98
2018-06-02T21:03:34.784Z,17.86
2018-06-02T21:06:06.714Z,17.61
2018-06-02T21:08:37.383Z,17.43
2018-06-02T21:13:45.767Z,17.47
2018-06-02T21:16:17.417Z,17.53
2018-06-02T21:18:49.350Z,17.37
2018-06-02T21:21:22.336Z,17.25
2018-06-02T21:23:52.596Z,17.21
2018-06-02T21:28:58.448Z,17.33
2018-06-02T21:31:31.286Z,17.40
2018-06-02T21:34:02.362Z,17.20
2018-06-02T21:36:35.028Z,17.00
2018-06-02T21:39:07.203Z,16.90
2018-06-02T21:41:42.288Z,16.82
2018-06-02T21:44:13.527Z,16.79
2018-06-02T21:46:46.103Z,16.64
2018-06-02T21:49:18.582Z,16.59
2018-06-02T21:51:51.100Z,16.82
2018-06-02T21:54:22.353Z,16.76
2018-06-02T21:56:53.923Z,16.71
2018-06-02T21:59:26.677Z,16.65
2018-06-02T22:01:57.955Z,16.67
2018-06-02T22:04:29.641Z,16.70
2018-06-02T22:07:03.185Z,16.76
2018-06-02T22:12:12.445Z,17.01
2018-06-02T22:14:45.473Z,16.87
2018-06-02T22:17:17.506Z,16.80
2018-06-02T22:19:50.782Z,16.67
2018-06-02T22:22:22.052Z,16.71
2018-06-02T22:24:52.657Z,16.42
2018-06-02T22:27:25.096Z,16.26
2018-06-02T22:29:56.175Z,16.26
2018-06-02T22:32:27.944Z,16.26
2018-06-02T22:34:59.039Z,16.21
2018-06-02T22:40:06.102Z,16.18
2018-06-02T22:42:38.412Z,16.35
2018-06-02T22:45:11.022Z,16.48
2018-06-02T22:47:42.632Z,16.37
2018-06-02T22:50:14.847Z,16.40
2018-06-02T22:52:47.189Z,16.35
2018-06-02T22:57:55.346Z,16.23
2018-06-02T23:00:29.495Z,16.10
2018-06-02T23:05:39.002Z,16.26
2018-06-02T23:08:10.190Z,16.18
2018-06-02T23:10:41.108Z,16.18
2018-06-02T23:13:13.248Z,16.13
2018-06-02T23:15:45.661Z,16.06
2018-06-02T23:18:17.034Z,15.97
2018-06-02T23:20:48.892Z,15.89
2018-06-02T23:23:20.936Z,15.89
2018-06-02T23:25:53.622Z,15.94
2018-06-02T23:28:26.608Z,15.92
2018-06-02T23:30:56.827Z,15.88
2018-06-02T23:33:29.833Z,15.84
2018-06-02T23:36:02.286Z,15.81
2018-06-02T23:38:35.554Z,15.76
2018-06-02T23:41:07.701Z,15.81
2018-06-02T23:43:42.025Z,15.86
2018-06-02T23:46:14.510Z,15.67
2018-06-02T23:48:46.464Z,15.55
2018-06-02T23:51:19.109Z,15.56
2018-06-02T23:53:52.198Z,15.55
2018-06-02T23:56:24.852Z,15.50
2018-06-02T23:58:55.979Z,15.40
